Time;durP1;ratioP1;P1;durP2;ratioP2;P2;SDS_P1;SDS_P2;PMS_P1;PMS_P2;Temp;Humidity;BMP_temperature;BMP_pressure;BME280_temperature;BME280_humidity;BME280_pressure;Samples;Min_cycle;Max_cycle;Signal;HPM_P1;HPM_P2
2022/11/14 00:00:09;;;;;;;18.27;6.45;;;4.10;99.90;;;;;;5008393;28;20029;-37
2022/11/14 00:02:35;;;;;;;9.25;6.75;;;4.00;99.90;;;;;;5022687;28;20042;-35
2022/11/14 00:05:00;;;;;;;10.55;5.72;;;4.00;99.90;;;;;;5023644;28;20502;-37
2022/11/14 00:07:29;;;;;;;11.85;7.00;;;4.00;99.90;;;;;;5025743;28;20064;-36
2022/11/14 00:09:55;;;;;;;6.97;3.50;;;4.00;99.90;;;;;;5024567;28;20043;-35
2022/11/14 00:12:20;;;;;;;6.88;5.18;;;4.00;99.90;;;;;;5022162;28;20029;-32
2022/11/14 00:14:46;;;;;;;7.55;6.22;;;4.00;99.90;;;;;;5023699;28;20483;-38
2022/11/14 00:17:12;;;;;;;14.95;6.68;;;4.10;99.90;;;;;;5023755;28;20157;-33
2022/11/14 00:19:37;;;;;;;8.85;6.20;;;4.10;99.90;;;;;;5021657;28;20092;-37
2022/11/14 00:22:03;;;;;;;8.55;6.20;;;4.10;99.90;;;;;;5028213;28;20749;-38
2022/11/14 00:24:28;;;;;;;7.82;5.65;;;4.20;99.90;;;;;;5024361;28;20069;-34
2022/11/14 00:26:54;;;;;;;15.23;7.90;;;4.20;99.90;;;;;;5021103;28;20045;-37
2022/11/14 00:29:19;;;;;;;15.98;8.27;;;4.20;99.90;;;;;;5021604;28;20121;-37
2022/11/14 00:31:45;;;;;;;18.13;9.82;;;4.30;99.90;;;;;;5025111;28;20033;-35
2022/11/14 00:34:11;;;;;;;16.23;8.40;;;4.20;99.90;;;;;;5024961;28;20037;-34
2022/11/14 00:36:36;;;;;;;11.43;6.40;;;4.20;99.90;;;;;;5023855;28;20687;-35
2022/11/14 00:39:03;;;;;;;8.25;5.80;;;4.30;99.90;;;;;;5023863;28;20052;-38
2022/11/14 00:41:28;;;;;;;7.57;5.32;;;4.20;99.90;;;;;;5026241;28;20120;-37
2022/11/14 00:43:54;;;;;;;10.35;6.78;;;4.20;99.90;;;;;;5023741;28;20132;-32
2022/11/14 00:46:19;;;;;;;7.35;5.55;;;4.20;99.90;;;;;;5025031;28;20037;-38
2022/11/14 00:48:45;;;;;;;10.43;6.10;;;4.20;99.90;;;;;;5021432;28;20045;-34
2022/11/14 00:51:11;;;;;;;9.05;6.60;;;4.20;99.90;;;;;;5019474;28;20025;-36
2022/11/14 00:53:36;;;;;;;11.88;7.15;;;4.30;99.90;;;;;;5020941;28;20164;-35
2022/11/14 00:56:03;;;;;;;10.13;6.57;;;4.30;99.90;;;;;;5020937;28;21210;-37
2022/11/14 00:58:28;;;;;;;6.47;4.40;;;4.30;99.90;;;;;;5010658;28;20157;-29
2022/11/14 01:00:54;;;;;;;12.77;7.25;;;4.30;99.90;;;;;;5010665;28;20690;-28
2022/11/14 01:03:19;;;;;;;13.05;8.30;;;4.30;99.90;;;;;;5009495;28;21740;-37
2022/11/14 01:05:48;;;;;;;11.63;6.60;;;4.40;99.90;;;;;;5025356;28;20398;-37
2022/11/14 01:08:14;;;;;;;;;;;4.40;99.90;;;;;;5027111;28;20401;-37
2022/11/14 01:10:42;;;;;;;12.18;6.97;;;4.40;99.90;;;;;;5027844;28;19917;-37
2022/11/14 01:13:08;;;;;;;7.10;5.03;;;4.40;99.90;;;;;;5025317;28;20072;-30
2022/11/14 01:15:41;;;;;;;10.57;6.28;;;4.40;99.90;;;;;;5031261;28;20020;-37
2022/11/14 01:18:11;;;;;;;10.80;7.40;;;4.40;99.90;;;;;;5029625;28;20411;-36
2022/11/14 01:20:39;;;;;;;10.02;6.80;;;4.50;99.90;;;;;;5028765;28;20045;-35
2022/11/14 01:23:05;;;;;;;8.57;5.65;;;4.50;99.90;;;;;;5025935;28;20041;-37
2022/11/14 01:25:32;;;;;;;9.60;6.10;;;4.50;99.90;;;;;;5027308;28;20116;-36
2022/11/14 01:27:58;;;;;;;8.80;6.07;;;4.50;99.90;;;;;;5025527;28;20902;-32
2022/11/14 01:30:24;;;;;;;9.15;6.03;;;4.50;99.90;;;;;;5029693;28;20040;-37
2022/11/14 01:32:49;;;;;;;11.00;5.63;;;4.50;99.90;;;;;;5026281;28;20502;-35
2022/11/14 01:35:15;;;;;;;9.15;6.30;;;4.50;99.90;;;;;;5026815;28;20033;-37
2022/11/14 01:37:40;;;;;;;10.35;5.97;;;4.60;99.90;;;;;;5030181;28;20097;-37
2022/11/14 01:40:06;;;;;;;3.92;3.47;;;4.50;99.90;;;;;;5032985;28;20033;-28
2022/11/14 01:42:32;;;;;;;10.48;7.03;;;4.50;99.90;;;;;;5027134;28;20087;-31
2022/11/14 01:44:58;;;;;;;10.05;5.90;;;4.50;99.90;;;;;;5026728;28;20371;-34
2022/11/14 01:47:29;;;;;;;10.05;6.38;;;4.50;99.90;;;;;;5028366;28;20055;-36
2022/11/14 01:50:00;;;;;;;12.32;6.93;;;4.50;99.90;;;;;;5028873;28;20052;-38
2022/11/14 01:52:38;;;;;;;10.30;6.45;;;4.60;99.90;;;;;;5028943;28;20136;-35
2022/11/14 01:55:07;;;;;;;11.57;6.77;;;4.60;99.90;;;;;;5028293;28;20025;-36
2022/11/14 01:57:37;;;;;;;10.85;6.50;;;4.60;99.90;;;;;;5024814;28;20781;-37
2022/11/14 02:00:09;;;;;;;10.80;7.20;;;4.60;99.90;;;;;;5025086;28;20029;-39
2022/11/14 02:02:36;;;;;;;13.98;6.22;;;4.60;99.90;;;;;;5023833;28;20038;-37
2022/11/14 02:05:14;;;;;;;11.10;6.50;;;4.60;99.90;;;;;;5027055;28;20060;-37
2022/11/14 02:07:40;;;;;;;12.02;6.85;;;4.60;99.90;;;;;;5022746;28;20787;-37
2022/11/14 02:10:09;;;;;;;10.30;6.75;;;4.60;99.90;;;;;;5026517;28;20021;-35
2022/11/14 02:12:36;;;;;;;11.52;5.78;;;4.60;99.90;;;;;;5026181;28;20234;-35
2022/11/14 02:15:03;;;;;;;11.48;7.20;;;4.60;99.90;;;;;;5028278;28;20029;-34
2022/11/14 02:17:29;;;;;;;8.40;5.53;;;4.60;99.90;;;;;;5025631;28;20394;-37
2022/11/14 02:20:10;;;;;;;11.55;5.30;;;4.60;99.90;;;;;;5028214;28;20035;-30
2022/11/14 02:22:36;;;;;;;2.83;2.25;;;4.60;99.90;;;;;;5026362;28;20033;-37
2022/11/14 02:25:02;;;;;;;9.55;5.75;;;4.40;99.90;;;;;;5027533;28;20030;-30
2022/11/14 02:27:30;;;;;;;8.95;5.97;;;4.40;99.90;;;;;;5025318;28;20022;-36
2022/11/14 02:30:07;;;;;;;10.13;5.40;;;4.50;99.90;;;;;;5029459;28;20038;-37
2022/11/14 02:32:33;;;;;;;8.47;6.07;;;4.50;99.90;;;;;;5027987;28;20034;-34
2022/11/14 02:34:58;;;;;;;11.23;6.43;;;4.50;99.90;;;;;;5028970;28;20028;-37
2022/11/14 02:37:24;;;;;;;12.20;6.63;;;4.50;99.90;;;;;;5029731;28;20800;-37
2022/11/14 02:39:50;;;;;;;13.23;7.85;;;4.60;99.90;;;;;;5026240;28;20639;-36
2022/11/14 02:42:15;;;;;;;9.75;6.53;;;4.50;99.90;;;;;;5026853;28;20056;-36
2022/11/14 02:44:41;;;;;;;7.53;4.45;;;4.60;99.90;;;;;;5027886;28;20029;-34
2022/11/14 02:47:06;;;;;;;11.13;6.03;;;4.60;99.90;;;;;;5028627;28;20048;-35
2022/11/14 02:49:32;;;;;;;10.88;6.88;;;4.60;99.90;;;;;;5027807;28;20494;-33
2022/11/14 02:51:57;;;;;;;10.88;5.50;;;4.60;99.90;;;;;;5024497;28;20030;-34
2022/11/14 02:54:23;;;;;;;12.07;6.15;;;4.60;99.90;;;;;;5016586;28;20029;-35
2022/11/14 02:56:48;;;;;;;7.38;5.07;;;4.60;99.90;;;;;;5025681;28;20060;-38
2022/11/14 02:59:14;;;;;;;9.98;6.35;;;4.60;99.90;;;;;;5025807;28;20026;-32
2022/11/14 03:01:40;;;;;;;9.90;6.45;;;4.60;99.90;;;;;;5030115;28;20502;-37
2022/11/14 03:04:05;;;;;;;9.98;6.15;;;4.70;99.90;;;;;;5026949;28;20100;-37
2022/11/14 03:06:31;;;;;;;11.40;6.93;;;4.70;99.90;;;;;;5027597;28;20530;-36
2022/11/14 03:08:57;;;;;;;9.40;5.93;;;4.70;99.90;;;;;;5022702;28;20410;-33
2022/11/14 03:11:22;;;;;;;8.95;5.90;;;4.70;99.90;;;;;;5011457;28;20021;-37
2022/11/14 03:13:48;;;;;;;10.10;6.55;;;4.70;99.90;;;;;;5009592;28;20470;-30
2022/11/14 03:16:13;;;;;;;9.45;6.55;;;4.80;99.90;;;;;;5026178;28;20034;-34
2022/11/14 03:18:39;;;;;;;10.82;7.47;;;4.80;99.90;;;;;;5026444;28;20402;-37
2022/11/14 03:21:13;;;;;;;16.23;7.57;;;4.80;99.90;;;;;;5021879;28;20033;-37
2022/11/14 03:23:39;;;;;;;13.57;6.90;;;4.80;99.90;;;;;;5027589;28;20061;-37
2022/11/14 03:26:07;;;;;;;6.68;4.68;;;4.90;99.90;;;;;;5022695;28;20095;-34
2022/11/14 03:28:33;;;;;;;12.33;7.23;;;4.80;99.90;;;;;;5025604;28;20024;-34
2022/11/14 03:30:59;;;;;;;10.77;6.45;;;4.80;99.90;;;;;;5028161;28;20041;-34
2022/11/14 03:33:24;;;;;;;11.98;7.35;;;4.80;99.90;;;;;;5027352;28;20391;-31
2022/11/14 03:35:50;;;;;;;6.47;4.68;;;4.80;99.90;;;;;;5025923;28;20097;-36
2022/11/14 03:38:17;;;;;;;7.43;4.55;;;4.70;99.90;;;;;;5022763;28;20433;-33
2022/11/14 03:40:43;;;;;;;9.90;6.18;;;4.60;99.90;;;;;;5027810;28;20053;-37
2022/11/14 03:43:08;;;;;;;13.95;7.72;;;4.50;99.90;;;;;;5026603;28;20060;-37
2022/11/14 03:45:36;;;;;;;13.93;8.27;;;4.60;99.90;;;;;;5029650;28;20037;-36
2022/11/14 03:48:03;;;;;;;13.90;8.17;;;4.60;99.90;;;;;;5026464;28;20083;-37
2022/11/14 03:50:28;;;;;;;11.63;6.00;;;4.70;99.90;;;;;;5023797;28;21307;-32
2022/11/14 03:52:54;;;;;;;8.68;5.95;;;4.70;99.90;;;;;;5024509;28;20148;-31
2022/11/14 03:55:19;;;;;;;9.05;5.55;;;4.60;99.90;;;;;;5024240;28;20042;-35
2022/11/14 03:57:45;;;;;;;13.18;6.95;;;4.60;99.90;;;;;;5026158;28;20131;-33
2022/11/14 04:00:11;;;;;;;5.22;3.88;;;4.60;99.90;;;;;;5025698;28;20029;-37
2022/11/14 04:02:36;;;;;;;7.30;4.18;;;4.50;99.90;;;;;;5020893;28;20041;-27
2022/11/14 04:05:02;;;;;;;7.53;4.57;;;4.50;99.90;;;;;;5025096;28;21983;-37
2022/11/14 04:07:28;;;;;;;10.32;6.75;;;4.50;99.90;;;;;;5028080;28;20079;-37
2022/11/14 04:09:53;;;;;;;8.75;6.38;;;4.50;99.90;;;;;;5024637;28;20034;-37
2022/11/14 04:12:19;;;;;;;10.88;7.50;;;4.60;99.90;;;;;;5019838;28;20025;-36
2022/11/14 04:14:44;;;;;;;6.78;5.30;;;4.60;99.90;;;;;;5027353;28;20714;-37
2022/11/14 04:17:10;;;;;;;4.25;3.30;;;4.60;99.90;;;;;;5025892;28;20550;-36
2022/11/14 04:19:36;;;;;;;11.30;6.95;;;4.60;99.90;;;;;;5027687;28;20434;-37
2022/11/14 04:22:02;;;;;;;11.82;7.07;;;4.60;99.90;;;;;;5026398;28;20529;-37
2022/11/14 04:24:27;;;;;;;11.60;7.13;;;4.60;99.90;;;;;;5027878;28;20033;-33
2022/11/14 04:26:53;;;;;;;11.85;7.25;;;4.70;99.90;;;;;;5025149;28;20053;-37
2022/11/14 04:29:19;;;;;;;13.77;7.03;;;4.70;99.90;;;;;;5026961;28;20037;-37
2022/11/14 04:31:45;;;;;;;10.52;7.35;;;4.70;99.90;;;;;;5029857;28;20524;-37
2022/11/14 04:34:10;;;;;;;12.02;7.38;;;4.70;99.90;;;;;;5034462;28;20039;-36
2022/11/14 04:36:36;;;;;;;10.10;6.05;;;4.70;99.90;;;;;;5030610;28;20101;-37
2022/11/14 04:39:02;;;;;;;11.70;6.80;;;4.70;99.90;;;;;;5031777;28;20053;-37
2022/11/14 04:41:27;;;;;;;10.02;6.45;;;4.70;99.90;;;;;;5034120;28;20063;-34
2022/11/14 04:43:53;;;;;;;10.32;6.63;;;4.70;99.90;;;;;;5027843;28;20203;-37
2022/11/14 04:46:19;;;;;;;10.88;6.75;;;4.70;99.90;;;;;;5027896;28;20040;-36
2022/11/14 04:48:44;;;;;;;10.48;6.53;;;4.70;99.90;;;;;;5030165;28;20033;-34
2022/11/14 04:51:10;;;;;;;12.80;7.50;;;4.80;99.90;;;;;;5029170;28;20084;-32
2022/11/14 04:53:35;;;;;;;12.23;7.20;;;4.70;99.90;;;;;;5030203;28;20022;-34
2022/11/14 04:56:01;;;;;;;7.97;5.63;;;4.80;99.90;;;;;;5028530;28;20044;-33
2022/11/14 04:58:26;;;;;;;11.05;6.93;;;4.70;99.90;;;;;;5027591;28;20120;-37
2022/11/14 05:00:52;;;;;;;12.80;6.93;;;4.70;99.90;;;;;;5026737;28;20486;-36
2022/11/14 05:03:18;;;;;;;12.88;7.15;;;4.70;99.90;;;;;;5026774;28;20029;-32
2022/11/14 05:05:43;;;;;;;20.35;11.20;;;4.70;99.90;;;;;;5026721;28;20107;-32
2022/11/14 05:08:09;;;;;;;11.73;6.85;;;4.60;99.90;;;;;;5027057;28;20107;-36
2022/11/14 05:10:35;;;;;;;16.27;9.40;;;4.60;99.90;;;;;;5027354;28;20033;-36
2022/11/14 05:13:00;;;;;;;15.75;8.32;;;4.60;99.90;;;;;;5029064;28;20113;-34
2022/11/14 05:15:26;;;;;;;11.85;7.30;;;4.50;99.90;;;;;;5027330;28;20414;-33
2022/11/14 05:17:51;;;;;;;14.70;7.30;;;4.50;99.90;;;;;;5028923;28;20021;-37
2022/11/14 05:20:17;;;;;;;11.48;6.90;;;4.50;99.90;;;;;;5027998;28;20033;-36
2022/11/14 05:22:43;;;;;;;10.55;6.75;;;4.40;99.90;;;;;;5029215;28;20605;-37
2022/11/14 05:25:09;;;;;;;12.88;6.80;;;4.40;99.90;;;;;;5031874;28;20047;-37
2022/11/14 05:27:34;;;;;;;14.85;8.55;;;4.40;99.90;;;;;;5027904;28;20045;-33
2022/11/14 05:30:00;;;;;;;8.35;5.95;;;4.50;99.90;;;;;;5030965;28;20657;-26
2022/11/14 05:32:25;;;;;;;11.60;6.63;;;4.50;99.90;;;;;;5027586;28;20046;-37
2022/11/14 05:34:51;;;;;;;7.43;5.38;;;4.40;99.90;;;;;;5032561;28;20040;-31
2022/11/14 05:37:17;;;;;;;8.63;6.13;;;4.40;99.90;;;;;;5028422;28;20495;-37
2022/11/14 05:39:42;;;;;;;12.80;7.10;;;4.40;99.90;;;;;;5027470;28;20021;-34
2022/11/14 05:42:08;;;;;;;9.70;6.28;;;4.30;99.90;;;;;;5027719;28;20041;-31
2022/11/14 05:44:33;;;;;;;9.48;6.03;;;4.40;99.90;;;;;;5029547;28;20183;-38
2022/11/14 05:46:59;;;;;;;8.77;5.97;;;4.40;99.90;;;;;;5031230;28;20041;-37
2022/11/14 05:49:24;;;;;;;10.82;6.65;;;4.40;99.90;;;;;;5030355;28;20025;-37
2022/11/14 05:51:50;;;;;;;10.80;6.00;;;4.50;99.90;;;;;;5029291;28;20741;-38
2022/11/14 05:54:15;;;;;;;23.60;7.38;;;4.40;99.90;;;;;;5027710;28;20071;-32
2022/11/14 05:56:41;;;;;;;11.85;7.15;;;4.40;99.90;;;;;;5027043;28;20147;-37
2022/11/14 05:59:07;;;;;;;21.63;7.18;;;4.40;99.90;;;;;;5029762;28;20483;-35
2022/11/14 06:01:32;;;;;;;15.23;7.82;;;4.30;99.90;;;;;;5018009;28;20034;-37
2022/11/14 06:03:58;;;;;;;13.23;8.07;;;4.40;99.90;;;;;;5007143;28;20396;-32
2022/11/14 06:06:23;;;;;;;16.13;8.98;;;4.40;99.90;;;;;;5004895;28;20083;-31
2022/11/14 06:08:49;;;;;;;12.35;7.78;;;4.50;99.90;;;;;;5004345;28;20463;-37
2022/11/14 06:11:18;;;;;;;4.70;3.15;;;4.40;99.90;;;;;;5005000;28;20026;-36
2022/11/14 06:13:44;;;;;;;7.22;3.22;;;4.40;99.90;;;;;;5006829;28;20088;-37
2022/11/14 06:16:13;;;;;;;6.13;4.93;;;4.20;99.90;;;;;;5009518;28;20045;-35
2022/11/14 06:18:39;;;;;;;6.38;4.88;;;4.30;99.90;;;;;;5008884;28;20526;-36
2022/11/14 06:21:24;;;;;;;5.47;4.78;;;4.40;99.90;;;;;;5005243;28;20049;-31
2022/11/14 06:23:50;;;;;;;7.90;5.53;;;4.30;99.90;;;;;;5004259;28;20044;-37
2022/11/14 06:26:30;;;;;;;8.25;5.18;;;4.30;99.90;;;;;;5019815;28;20045;-36
2022/11/14 06:28:56;;;;;;;41.30;17.08;;;4.30;99.90;;;;;;5024464;28;20037;-37
2022/11/14 06:31:22;;;;;;;23.20;11.02;;;4.40;99.90;;;;;;5023605;28;20030;-29
2022/11/14 06:33:48;;;;;;;33.63;14.27;;;4.40;99.90;;;;;;5020918;28;20026;-32
2022/11/14 06:36:14;;;;;;;72.32;26.58;;;4.40;99.90;;;;;;5026464;28;20059;-37
2022/11/14 06:38:41;;;;;;;55.55;22.70;;;4.40;99.90;;;;;;5016706;28;20540;-34
2022/11/14 06:41:11;;;;;;;37.45;16.65;;;4.30;99.90;;;;;;5011469;28;20043;-31
2022/11/14 06:43:39;;;;;;;16.10;9.10;;;4.30;99.90;;;;;;5006655;28;20123;-34
2022/11/14 06:46:06;;;;;;;7.32;5.60;;;4.30;99.90;;;;;;5008021;28;20112;-33
2022/11/14 06:48:32;;;;;;;5.82;5.05;;;4.20;99.90;;;;;;5007732;28;20045;-34
2022/11/14 06:50:59;;;;;;;7.28;4.70;;;4.30;99.90;;;;;;5007970;28;20030;-29
2022/11/14 06:53:27;;;;;;;7.60;5.70;;;4.20;99.90;;;;;;5005985;28;20047;-35
2022/11/14 06:55:58;;;;;;;5.07;4.13;;;4.30;99.90;;;;;;5007510;28;20116;-37
2022/11/14 06:58:29;;;;;;;5.32;3.92;;;4.30;99.90;;;;;;5008632;28;20025;-34
2022/11/14 07:00:54;;;;;;;6.72;4.35;;;4.40;99.90;;;;;;5022514;28;20036;-37
2022/11/14 07:03:21;;;;;;;8.95;4.28;;;4.20;99.90;;;;;;5017445;28;20382;-34
2022/11/14 07:05:47;;;;;;;5.63;3.97;;;4.10;99.90;;;;;;5025750;28;20526;-37
2022/11/14 07:08:12;;;;;;;6.72;4.25;;;4.20;99.90;;;;;;5027499;28;20079;-33
2022/11/14 07:10:38;;;;;;;6.35;4.60;;;4.30;99.90;;;;;;5024211;28;20037;-37
2022/11/14 07:13:03;;;;;;;6.03;3.65;;;4.20;99.90;;;;;;5021500;28;20025;-37
2022/11/14 07:15:29;;;;;;;5.68;4.65;;;4.20;99.90;;;;;;5025057;28;20079;-37
2022/11/14 07:17:54;;;;;;;6.03;4.43;;;4.20;99.90;;;;;;5030959;28;20032;-34
2022/11/14 07:20:20;;;;;;;5.80;4.05;;;4.10;99.90;;;;;;5028080;28;20110;-37
2022/11/14 07:22:46;;;;;;;5.43;4.22;;;4.10;99.90;;;;;;5025537;28;20398;-37
2022/11/14 07:25:12;;;;;;;5.65;4.35;;;4.20;99.90;;;;;;5028616;28;20049;-37
2022/11/14 07:27:38;;;;;;;6.43;3.88;;;4.10;99.90;;;;;;5022286;28;20039;-28
2022/11/14 07:30:04;;;;;;;4.57;3.95;;;4.10;99.90;;;;;;5026687;28;20037;-38
2022/11/14 07:32:31;;;;;;;4.40;3.67;;;4.10;99.90;;;;;;5021635;28;20140;-36
2022/11/14 07:34:57;;;;;;;5.28;4.07;;;4.10;99.90;;;;;;5024893;28;20538;-38
2022/11/14 07:37:23;;;;;;;3.63;3.22;;;4.10;99.90;;;;;;5022451;28;20624;-37
2022/11/14 07:39:48;;;;;;;5.32;4.05;;;4.10;99.90;;;;;;5021445;28;20117;-36
2022/11/14 07:42:14;;;;;;;4.68;3.85;;;4.20;99.90;;;;;;5018240;28;20086;-37
2022/11/14 07:44:39;;;;;;;5.38;4.35;;;4.20;99.90;;;;;;5019606;28;20038;-36
2022/11/14 07:47:05;;;;;;;4.35;3.88;;;4.30;99.90;;;;;;5019314;28;20029;-36
2022/11/14 07:49:31;;;;;;;6.03;4.15;;;4.30;99.90;;;;;;5026223;28;20079;-32
2022/11/14 07:51:56;;;;;;;5.05;3.65;;;4.40;99.90;;;;;;5027170;28;20034;-37
2022/11/14 07:54:22;;;;;;;4.18;3.78;;;4.30;99.90;;;;;;5027822;28;20386;-37
2022/11/14 07:56:47;;;;;;;6.82;4.18;;;4.20;99.90;;;;;;5026846;28;20025;-37
2022/11/14 07:59:13;;;;;;;4.95;3.67;;;4.10;99.90;;;;;;5029899;28;20029;-34
2022/11/14 08:01:39;;;;;;;5.63;3.78;;;4.10;99.90;;;;;;5025081;28;20491;-37
2022/11/14 08:04:04;;;;;;;5.40;3.83;;;4.00;99.90;;;;;;5025748;28;20061;-37
2022/11/14 08:06:30;;;;;;;5.95;4.30;;;4.00;99.90;;;;;;5011000;28;20651;-35
2022/11/14 08:08:55;;;;;;;5.65;4.63;;;4.00;99.90;;;;;;5028576;28;20590;-32
2022/11/14 08:11:46;;;;;;;7.05;4.68;;;3.90;99.90;;;;;;5033961;28;20036;-36
2022/11/14 08:14:07;;;;;;;5.20;4.03;;;3.90;99.90;;;;;;5024007;28;20038;-36
2022/11/14 08:16:33;;;;;;;6.28;4.47;;;4.00;99.90;;;;;;5031241;28;20025;-37
2022/11/14 08:18:59;;;;;;;4.75;3.97;;;4.00;99.90;;;;;;5025688;28;20021;-36
2022/11/14 08:21:24;;;;;;;5.25;3.97;;;4.00;99.90;;;;;;5027402;28;20074;-36
2022/11/14 08:23:50;;;;;;;4.03;3.50;;;4.10;99.90;;;;;;5024092;28;20112;-37
2022/11/14 08:26:15;;;;;;;4.40;4.00;;;4.10;99.90;;;;;;5026065;28;20046;-35
2022/11/14 08:28:41;;;;;;;4.68;4.28;;;4.10;99.90;;;;;;5029382;28;20053;-36
2022/11/14 08:31:08;;;;;;;6.50;4.82;;;4.10;99.90;;;;;;5026316;28;20045;-37
2022/11/14 08:33:34;;;;;;;4.93;3.87;;;4.20;99.90;;;;;;5028509;28;20029;-36
2022/11/14 08:36:05;;;;;;;4.57;4.18;;;4.20;99.90;;;;;;5027311;28;20044;-37
2022/11/14 08:38:32;;;;;;;4.93;4.43;;;4.30;99.90;;;;;;5028182;28;20032;-35
2022/11/14 08:40:59;;;;;;;6.20;4.45;;;4.40;99.90;;;;;;5028898;28;20033;-37
2022/11/14 08:43:24;;;;;;;6.47;4.22;;;4.40;99.90;;;;;;5028930;28;20037;-35
2022/11/14 08:45:50;;;;;;;6.13;4.10;;;4.50;99.90;;;;;;5024814;28;20025;-33
2022/11/14 08:48:16;;;;;;;6.65;3.97;;;4.50;99.90;;;;;;5027271;28;20067;-37
2022/11/14 08:50:41;;;;;;;5.07;4.03;;;4.60;99.90;;;;;;5027979;28;20398;-37
2022/11/14 08:53:07;;;;;;;5.93;4.30;;;4.60;99.90;;;;;;5026482;28;20148;-34
2022/11/14 08:55:33;;;;;;;5.63;4.15;;;4.80;99.90;;;;;;5026255;28;20021;-37
2022/11/14 08:57:59;;;;;;;6.70;4.75;;;4.80;99.90;;;;;;5027473;28;20037;-37
2022/11/14 09:00:25;;;;;;;5.85;3.88;;;5.00;99.90;;;;;;5023190;28;20061;-37
2022/11/14 09:02:50;;;;;;;5.20;4.70;;;5.00;99.90;;;;;;5023067;28;20040;-33
2022/11/14 09:05:16;;;;;;;6.18;4.35;;;5.10;99.90;;;;;;5026980;28;20500;-37
2022/11/14 09:07:42;;;;;;;6.22;4.13;;;5.20;99.90;;;;;;5027736;28;20030;-37
2022/11/14 09:10:08;;;;;;;7.28;5.20;;;5.30;99.90;;;;;;5026130;28;20061;-37
2022/11/14 09:12:34;;;;;;;5.40;4.50;;;5.40;99.90;;;;;;5022480;28;20065;-29
2022/11/14 09:14:59;;;;;;;8.07;5.35;;;5.30;99.90;;;;;;5029914;28;20831;-37
2022/11/14 09:17:25;;;;;;;6.57;5.20;;;5.40;99.90;;;;;;5034524;28;20025;-35
2022/11/14 09:19:51;;;;;;;6.38;4.53;;;5.40;99.90;;;;;;5031360;28;20036;-35
2022/11/14 09:22:16;;;;;;;5.53;4.85;;;5.40;99.90;;;;;;5029223;28;20108;-36
2022/11/14 09:24:42;;;;;;;6.85;5.32;;;5.30;99.90;;;;;;5032608;28;20390;-30
2022/11/14 09:27:08;;;;;;;5.85;4.65;;;5.40;99.90;;;;;;5028416;28;21654;-33
2022/11/14 09:29:33;;;;;;;8.98;5.10;;;5.40;99.90;;;;;;5030568;28;20021;-34
2022/11/14 09:31:59;;;;;;;5.03;4.53;;;5.40;99.90;;;;;;5028392;28;20029;-37
2022/11/14 09:34:24;;;;;;;8.07;5.15;;;5.40;99.90;;;;;;5028693;28;20401;-32
2022/11/14 09:36:50;;;;;;;7.03;4.78;;;5.30;99.90;;;;;;5030701;28;20116;-35
2022/11/14 09:39:16;;;;;;;7.90;5.10;;;5.30;99.90;;;;;;5029166;28;20375;-37
2022/11/14 09:42:18;;;;;;;6.10;4.90;;;5.40;99.90;;;;;;5028370;28;20029;-35
2022/11/14 09:45:03;;;;;;;60.13;25.85;;;5.40;99.90;;;;;;5027801;28;20022;-37
2022/11/14 09:47:40;;;;;;;10.27;6.10;;;5.40;99.90;;;;;;5013666;28;20034;-36
2022/11/14 09:50:29;;;;;;;8.35;5.13;;;5.50;99.90;;;;;;5026501;28;20099;-31
2022/11/14 09:53:03;;;;;;;6.50;5.45;;;5.50;99.90;;;;;;5031514;28;20029;-32
2022/11/14 09:55:30;;;;;;;8.65;5.63;;;5.60;99.90;;;;;;5024594;28;20025;-37
2022/11/14 09:57:56;;;;;;;7.00;5.30;;;5.60;99.90;;;;;;5030926;28;20104;-33
2022/11/14 10:00:24;;;;;;;7.13;5.90;;;5.70;99.90;;;;;;5025153;28;20489;-34
2022/11/14 10:03:24;;;;;;;6.05;4.93;;;5.80;99.90;;;;;;5030366;28;20532;-35
2022/11/14 10:05:59;;;;;;;5.95;5.32;;;5.70;99.90;;;;;;5022752;28;20034;-36
2022/11/14 10:08:57;;;;;;;9.45;5.97;;;5.80;99.90;;;;;;5029134;28;20040;-28
2022/11/14 10:11:37;;;;;;;9.20;5.03;;;5.80;99.90;;;;;;5023060;28;21961;-34
2022/11/14 10:14:21;;;;;;;8.32;5.38;;;5.90;99.90;;;;;;5029329;28;20508;-34
2022/11/14 10:17:05;;;;;;;7.43;5.43;;;5.90;99.90;;;;;;5027994;28;20025;-37
2022/11/14 10:19:44;;;;;;;8.13;5.82;;;6.00;99.90;;;;;;5024022;28;20033;-30
2022/11/14 10:22:18;;;;;;;5.18;4.45;;;6.10;99.90;;;;;;5025998;28;20037;-37
2022/11/14 10:25:02;;;;;;;7.65;5.50;;;6.30;99.90;;;;;;5028599;28;20040;-34
2022/11/14 10:27:53;;;;;;;7.30;5.30;;;6.40;99.90;;;;;;5027613;28;20429;-37
2022/11/14 10:30:19;;;;;;;6.57;5.07;;;6.50;99.90;;;;;;5022815;28;20086;-30
2022/11/14 10:33:06;;;;;;;10.50;6.70;;;6.50;99.90;;;;;;5023209;28;20032;-37
2022/11/14 10:35:56;;;;;;;10.27;6.33;;;6.70;99.90;;;;;;5028087;28;20088;-36
2022/11/14 10:38:51;;;;;;;7.53;5.80;;;6.70;99.90;;;;;;5027388;28;20104;-36
2022/11/14 10:41:17;;;;;;;7.88;5.07;;;6.90;99.90;;;;;;5021160;28;20154;-29
2022/11/14 10:43:46;;;;;;;8.45;5.20;;;7.00;99.90;;;;;;5030052;28;20029;-35
2022/11/14 10:46:15;;;;;;;8.90;5.88;;;7.10;99.90;;;;;;5025182;28;20762;-29
2022/11/14 10:48:46;;;;;;;9.77;6.15;;;7.10;99.90;;;;;;5027164;28;20029;-34
2022/11/14 10:51:26;;;;;;;7.22;5.75;;;7.20;99.90;;;;;;5029424;28;20026;-36
2022/11/14 10:54:00;;;;;;;7.88;5.13;;;7.30;99.90;;;;;;5027507;28;20025;-30
2022/11/14 10:56:26;;;;;;;4.43;3.58;;;7.30;99.90;;;;;;5029319;28;20454;-36
2022/11/14 10:58:51;;;;;;;6.05;4.88;;;7.80;99.90;;;;;;5024756;28;20058;-29
2022/11/14 11:01:36;;;;;;;6.40;5.13;;;7.70;99.90;;;;;;5025954;28;20033;-36
2022/11/14 11:04:35;;;;;;;10.50;5.68;;;7.70;99.90;;;;;;5026441;28;20105;-36
2022/11/14 11:07:07;;;;;;;7.35;5.47;;;7.70;99.90;;;;;;4992815;28;20092;-34
2022/11/14 11:12:35;;;;;;;6.68;4.90;;;7.80;99.90;;;;;;5024828;28;20191;-34
2022/11/14 11:15:15;;;;;;;5.60;4.68;;;7.80;99.90;;;;;;5027437;28;20062;-36
2022/11/14 11:18:04;;;;;;;6.97;5.03;;;8.00;99.90;;;;;;5025631;28;20018;-36
2022/11/14 11:20:40;;;;;;;8.43;5.63;;;8.00;99.90;;;;;;5024169;28;20083;-36
2022/11/14 11:23:11;;;;;;;7.35;5.05;;;8.00;99.90;;;;;;5034666;28;20032;-37
2022/11/14 11:25:38;;;;;;;5.57;4.85;;;8.00;99.90;;;;;;5025543;28;20447;-36
2022/11/14 11:28:05;;;;;;;5.82;4.97;;;8.10;99.90;;;;;;5028902;28;20026;-37
2022/11/14 11:30:30;;;;;;;9.25;6.15;;;8.20;99.90;;;;;;5027547;28;20036;-35
2022/11/14 11:32:56;;;;;;;6.82;5.32;;;8.30;99.90;;;;;;5027264;28;20430;-36
2022/11/14 11:35:22;;;;;;;7.63;4.40;;;8.30;99.90;;;;;;5030478;28;20035;-33
2022/11/14 11:37:56;;;;;;;4.72;4.00;;;8.50;99.90;;;;;;5025572;28;20051;-37
2022/11/14 11:40:24;;;;;;;6.25;4.40;;;8.80;99.90;;;;;;5028400;28;20037;-37
2022/11/14 11:42:59;;;;;;;6.25;4.60;;;9.10;99.90;;;;;;5023016;28;21451;-31
2022/11/14 11:45:26;;;;;;;4.47;3.67;;;9.20;99.90;;;;;;5029916;28;20111;-37
2022/11/14 11:47:58;;;;;;;4.82;3.33;;;9.30;99.90;;;;;;5023186;28;20032;-36
2022/11/14 11:50:24;;;;;;;4.88;3.13;;;9.50;99.90;;;;;;5029057;28;20021;-37
2022/11/14 11:53:11;;;;;;;5.85;4.13;;;9.60;99.90;;;;;;5029783;28;20031;-34
2022/11/14 11:55:43;;;;;;;4.68;4.13;;;9.70;99.90;;;;;;5028342;28;20501;-37
2022/11/14 11:58:08;;;;;;;5.28;4.47;;;9.80;99.90;;;;;;5026941;28;20025;-37
2022/11/14 12:00:34;;;;;;;7.60;4.22;;;9.80;99.90;;;;;;5028433;28;20017;-36
2022/11/14 12:03:00;;;;;;;7.00;4.28;;;9.80;99.90;;;;;;5025472;28;20032;-37
2022/11/14 12:05:44;;;;;;;7.63;4.35;;;9.90;99.90;;;;;;5022351;28;20025;-36
2022/11/14 12:08:30;;;;;;;6.40;4.00;;;10.00;99.90;;;;;;5024816;28;20044;-36
2022/11/14 12:10:58;;;;;;;6.25;4.38;;;10.00;99.90;;;;;;5022068;28;20041;-37
2022/11/14 12:14:01;;;;;;;6.72;4.10;;;10.10;99.90;;;;;;5018691;28;20151;-35
2022/11/14 12:16:42;;;;;;;6.57;4.22;;;10.20;99.90;;;;;;5018000;28;20034;-33
2022/11/14 12:19:48;;;;;;;5.82;4.28;;;10.30;99.90;;;;;;5025346;28;20460;-32
2022/11/14 12:22:46;;;;;;;5.05;4.13;;;10.40;99.90;;;;;;5026896;28;20044;-37
2022/11/14 12:25:46;;;;;;;5.82;4.20;;;10.50;99.90;;;;;;5006069;28;20050;-37
2022/11/14 12:28:14;;;;;;;5.32;3.60;;;10.50;99.90;;;;;;5025839;28;20041;-35
2022/11/14 12:30:45;;;;;;;4.30;3.45;;;10.60;99.90;;;;;;5022603;28;20041;-30
2022/11/14 12:33:26;;;;;;;6.22;4.30;;;10.70;99.90;;;;;;5020795;28;20061;-37
2022/11/14 12:35:56;;;;;;;5.70;3.85;;;10.70;99.90;;;;;;5028040;28;20115;-37
2022/11/14 12:38:22;;;;;;;5.05;3.70;;;10.70;99.90;;;;;;5027412;28;20038;-37
2022/11/14 12:40:54;;;;;;;5.43;4.07;;;10.70;99.90;;;;;;5030153;28;20100;-36
2022/11/14 12:43:43;;;;;;;8.75;4.38;;;10.70;99.90;;;;;;5029467;28;20033;-37
2022/11/14 12:46:11;;;;;;;4.25;3.35;;;10.80;99.90;;;;;;5027023;28;20030;-34
2022/11/14 12:48:40;;;;;;;5.72;3.88;;;10.80;99.90;;;;;;5027057;28;20557;-37
2022/11/14 12:51:26;;;;;;;;;;;10.70;99.90;;;;;;5025614;28;20478;-35
2022/11/14 12:53:53;;;;;;;4.22;3.80;;;10.70;99.90;;;;;;5030898;28;19912;-36
2022/11/14 12:56:30;;;;;;;5.82;4.60;;;10.70;99.90;;;;;;5033739;28;20037;-36
2022/11/14 12:59:28;;;;;;;6.95;5.03;;;10.70;99.90;;;;;;5027589;28;20025;-36
2022/11/14 13:02:16;;;;;;;12.20;6.50;;;10.60;99.90;;;;;;5030209;28;20107;-36
2022/11/14 13:04:55;;;;;;;10.93;7.00;;;10.50;99.90;;;;;;5028517;28;20036;-36